createdAt,value
2019-02-15T00:00:14.204Z,10.83
2019-02-15T00:02:45.817Z,11.13
2019-02-15T00:05:14.516Z,11.30
2019-02-15T00:07:43.032Z,10.87
2019-02-15T00:10:11.582Z,10.83
2019-02-15T00:12:40.161Z,10.00
2019-02-15T00:15:09.069Z,11.53
2019-02-15T00:17:51.436Z,10.90
2019-02-15T00:20:21.737Z,10.00
2019-02-15T00:22:50.278Z,10.47
2019-02-15T00:25:18.864Z,11.03
2019-02-15T00:27:47.440Z,11.67
2019-02-15T00:30:15.981Z,10.63
2019-02-15T00:32:44.565Z,10.37
2019-02-15T00:35:18.335Z,10.03
2019-02-15T00:37:46.917Z,11.10
2019-02-15T00:40:15.687Z,10.83
2019-02-15T00:42:44.359Z,12.63
2019-02-15T00:45:15.884Z,11.13
2019-02-15T00:47:51.451Z,10.40
2019-02-15T00:50:30.400Z,10.43
2019-02-15T00:53:03.323Z,11.57
2019-02-15T00:55:36.109Z,10.90
2019-02-15T00:58:18.222Z,10.97
2019-02-15T01:00:51.118Z,10.70
2019-02-15T01:03:21.417Z,11.33
2019-02-15T01:05:51.605Z,11.07
2019-02-15T01:08:21.825Z,10.97
2019-02-15T01:10:51.945Z,9.93
2019-02-15T01:13:20.679Z,10.57
2019-02-15T01:15:49.361Z,10.67
2019-02-15T01:18:18.139Z,12.10
2019-02-15T01:20:46.697Z,12.23
2019-02-15T01:23:15.415Z,10.83
2019-02-15T01:25:45.991Z,10.67
2019-02-15T01:28:18.936Z,11.73
2019-02-15T01:30:49.182Z,10.67
2019-02-15T01:33:37.367Z,11.50
2019-02-15T01:36:22.770Z,10.83
2019-02-15T01:39:07.913Z,12.27
2019-02-15T01:41:43.826Z,11.50
2019-02-15T01:44:14.018Z,11.60
2019-02-15T01:46:44.323Z,11.70
2019-02-15T01:49:12.979Z,10.57
2019-02-15T01:51:41.526Z,10.77
2019-02-15T01:54:10.335Z,11.63
2019-02-15T01:56:38.963Z,11.63
2019-02-15T01:59:07.548Z,11.20
2019-02-15T02:01:36.291Z,12.20
2019-02-15T02:04:04.964Z,10.80
2019-02-15T02:06:33.739Z,11.53
2019-02-15T02:09:02.335Z,10.83
2019-02-15T02:11:31.329Z,11.53
2019-02-15T02:13:59.976Z,11.47
2019-02-15T02:16:28.555Z,11.00
2019-02-15T02:18:57.322Z,11.77
2019-02-15T02:21:25.906Z,12.17
2019-02-15T02:23:54.509Z,12.00
2019-02-15T02:26:23.134Z,10.87
2019-02-15T02:28:51.725Z,10.83
2019-02-15T02:31:20.445Z,12.23
2019-02-15T02:33:49.084Z,11.50
2019-02-15T02:36:18.128Z,11.23
2019-02-15T02:38:46.767Z,11.13
2019-02-15T02:41:15.397Z,11.53
2019-02-15T02:43:43.926Z,11.23
2019-02-15T02:46:12.584Z,11.37
2019-02-15T02:48:41.149Z,11.93
2019-02-15T02:51:09.802Z,11.87
2019-02-15T02:53:38.347Z,12.17
2019-02-15T02:56:07.064Z,10.50
2019-02-15T02:58:35.712Z,11.50
2019-02-15T03:01:04.375Z,11.87
2019-02-15T03:03:32.982Z,11.77
2019-02-15T03:06:01.579Z,10.73
2019-02-15T03:08:30.159Z,10.73
2019-02-15T03:10:58.744Z,11.30
2019-02-15T03:13:27.469Z,10.90
2019-02-15T03:15:56.431Z,10.77
2019-02-15T03:18:25.165Z,10.80
2019-02-15T03:20:53.834Z,11.07
2019-02-15T03:23:22.423Z,10.70
2019-02-15T03:25:56.395Z,10.80
2019-02-15T03:28:25.014Z,10.90
2019-02-15T03:30:53.612Z,11.30
2019-02-15T03:33:22.291Z,10.70
2019-02-15T03:35:58.860Z,11.03
2019-02-15T03:38:29.083Z,10.47
2019-02-15T03:40:58.627Z,11.47
2019-02-15T03:43:27.313Z,11.13
2019-02-15T03:45:55.928Z,10.77
2019-02-15T03:48:24.586Z,9.57
2019-02-15T03:50:53.642Z,9.63
2019-02-15T03:53:22.225Z,10.80
2019-02-15T03:55:50.923Z,10.63
2019-02-15T03:58:19.514Z,9.07
2019-02-15T04:00:48.154Z,9.90
2019-02-15T04:03:16.837Z,10.13
2019-02-15T04:05:45.416Z,9.67
2019-02-15T04:08:14.252Z,9.73
2019-02-15T04:10:42.837Z,10.10
2019-02-15T04:13:11.419Z,10.17
2019-02-15T04:15:40.103Z,9.87
2019-02-15T04:18:08.689Z,9.70
2019-02-15T04:20:37.539Z,11.43
2019-02-15T04:23:06.119Z,9.97
2019-02-15T04:25:34.703Z,10.47
2019-02-15T04:28:03.675Z,9.83
2019-02-15T04:30:32.344Z,10.60
2019-02-15T04:33:00.998Z,10.30
2019-02-15T04:35:29.628Z,9.23
2019-02-15T04:37:58.212Z,9.60
2019-02-15T04:40:26.822Z,9.33
2019-02-15T04:42:55.518Z,9.83
2019-02-15T04:45:24.143Z,9.73
2019-02-15T04:47:53.349Z,9.37
2019-02-15T04:50:21.956Z,10.13
2019-02-15T04:52:50.504Z,11.40
2019-02-15T04:55:19.195Z,11.13
2019-02-15T04:57:47.780Z,11.07
2019-02-15T05:00:16.496Z,9.40
2019-02-15T05:02:45.080Z,9.87
2019-02-15T05:05:13.622Z,10.17
2019-02-15T05:07:42.214Z,9.77
2019-02-15T05:10:11.104Z,9.10
2019-02-15T05:12:40.092Z,9.67
2019-02-15T05:15:09.311Z,8.47
2019-02-15T05:17:38.123Z,9.53
2019-02-15T05:20:07.959Z,9.43
2019-02-15T05:22:36.654Z,9.63
2019-02-15T05:25:05.685Z,9.03
2019-02-15T05:27:34.266Z,9.27
2019-02-15T05:30:03.018Z,9.43
2019-02-15T05:32:31.557Z,9.63
2019-02-15T05:35:00.422Z,9.80
2019-02-15T05:37:29.338Z,9.60
2019-02-15T05:39:58.081Z,10.67
2019-02-15T05:42:27.066Z,11.03
2019-02-15T05:45:03.264Z,11.40
2019-02-15T05:47:26.031Z,11.80
2019-02-15T05:49:54.660Z,10.37
2019-02-15T05:52:23.936Z,10.07
2019-02-15T05:54:52.481Z,9.17
2019-02-15T05:57:21.165Z,9.63
2019-02-15T05:59:49.741Z,9.57
2019-02-15T06:02:18.375Z,10.73
2019-02-15T06:04:46.949Z,10.43
2019-02-15T06:07:15.602Z,9.77
2019-02-15T06:09:44.150Z,9.43
2019-02-15T06:12:12.750Z,9.03
2019-02-15T06:14:41.400Z,10.00
2019-02-15T06:17:10.102Z,9.50
2019-02-15T06:19:38.718Z,10.13
2019-02-15T06:22:07.337Z,9.93
2019-02-15T06:24:35.969Z,10.07
2019-02-15T06:27:04.552Z,10.73
2019-02-15T06:29:33.183Z,10.37
2019-02-15T06:32:01.789Z,10.23
2019-02-15T06:34:30.350Z,9.73
2019-02-15T06:36:59.353Z,11.17
2019-02-15T06:39:28.003Z,10.73
2019-02-15T06:41:56.502Z,11.93
2019-02-15T06:44:25.252Z,14.33
2019-02-15T06:46:53.970Z,11.90
2019-02-15T06:49:22.546Z,14.47
2019-02-15T06:51:51.217Z,12.50
2019-02-15T06:54:19.890Z,11.67
2019-02-15T06:56:48.602Z,11.63
2019-02-15T06:59:24.692Z,11.33
2019-02-15T07:01:55.007Z,11.30
2019-02-15T07:04:25.264Z,11.53
2019-02-15T07:06:55.566Z,12.57
2019-02-15T07:09:24.143Z,11.20
2019-02-15T07:11:53.204Z,11.53
2019-02-15T07:14:22.889Z,16.30
2019-02-15T07:16:51.746Z,11.00
2019-02-15T07:19:20.498Z,10.60
2019-02-15T07:21:49.089Z,10.73
2019-02-15T07:24:17.773Z,10.27
2019-02-15T07:26:46.536Z,9.33
2019-02-15T07:29:16.002Z,9.80
2019-02-15T07:31:44.623Z,9.30
2019-02-15T07:34:15.851Z,9.43
2019-02-15T07:36:44.607Z,11.40
2019-02-15T07:39:13.294Z,11.03
2019-02-15T07:41:42.062Z,11.63
2019-02-15T07:44:10.665Z,10.87
2019-02-15T07:46:39.351Z,11.37
2019-02-15T07:49:07.944Z,11.00
2019-02-15T07:51:36.629Z,10.40
2019-02-15T07:54:05.754Z,11.63
2019-02-15T07:56:34.357Z,11.23
2019-02-15T07:59:03.113Z,11.77
2019-02-15T08:01:32.284Z,12.50
2019-02-15T08:04:00.836Z,13.10
2019-02-15T08:06:29.506Z,13.03
2019-02-15T08:08:58.264Z,12.00
2019-02-15T08:11:26.998Z,10.83
2019-02-15T08:13:55.658Z,11.37
2019-02-15T08:16:25.377Z,11.53
2019-02-15T08:19:13.478Z,10.43
2019-02-15T08:22:01.450Z,11.40
2019-02-15T08:24:30.260Z,12.50
2019-02-15T08:26:59.150Z,13.27
2019-02-15T08:29:27.903Z,17.13
2019-02-15T08:31:56.585Z,16.13
2019-02-15T08:34:25.405Z,16.13
2019-02-15T08:36:54.112Z,15.13
2019-02-15T08:39:22.803Z,14.93
2019-02-15T08:42:01.175Z,15.03
2019-02-15T08:44:21.813Z,13.03
2019-02-15T08:46:50.420Z,13.17
2019-02-15T08:49:20.279Z,13.03
2019-02-15T08:51:49.004Z,13.03
2019-02-15T08:54:17.651Z,12.87
2019-02-15T08:56:46.271Z,12.53
2019-02-15T08:59:14.961Z,12.70
2019-02-15T09:01:45.130Z,11.60
2019-02-15T09:04:13.829Z,12.10
2019-02-15T09:06:42.867Z,12.13
2019-02-15T09:09:11.568Z,12.40
2019-02-15T09:11:40.336Z,12.57
2019-02-15T09:14:08.883Z,13.53
2019-02-15T09:16:37.468Z,11.83
2019-02-15T09:19:06.264Z,13.17
2019-02-15T09:21:35.190Z,13.63
2019-02-15T09:24:03.919Z,12.97
2019-02-15T09:26:32.574Z,13.40
2019-02-15T09:29:02.862Z,14.43
2019-02-15T09:31:31.432Z,14.20
2019-02-15T09:33:59.970Z,13.13
2019-02-15T09:36:28.735Z,12.50
2019-02-15T09:38:57.625Z,12.57
2019-02-15T09:41:26.212Z,12.60
2019-02-15T09:43:54.879Z,13.57
2019-02-15T09:46:23.418Z,14.17
2019-02-15T09:49:11.409Z,12.23
2019-02-15T09:51:40.011Z,13.63
2019-02-15T09:54:08.579Z,12.37
2019-02-15T09:56:37.315Z,11.87
2019-02-15T09:59:07.659Z,12.67
2019-02-15T10:01:36.327Z,11.20
2019-02-15T10:04:06.546Z,11.43
2019-02-15T10:06:35.112Z,11.30
2019-02-15T10:09:05.123Z,11.10
2019-02-15T10:11:33.743Z,11.00
2019-02-15T10:14:03.448Z,10.77
2019-02-15T10:16:32.021Z,10.57
2019-02-15T10:19:01.755Z,9.90
2019-02-15T10:21:30.494Z,10.37
2019-02-15T10:24:00.799Z,9.53
2019-02-15T10:26:31.074Z,10.20
2019-02-15T10:28:59.835Z,8.87
2019-02-15T10:31:28.503Z,8.90
2019-02-15T10:33:57.116Z,7.93
2019-02-15T10:36:25.695Z,6.93
2019-02-15T10:38:54.398Z,6.73
2019-02-15T10:41:23.045Z,6.60
2019-02-15T10:43:51.676Z,6.40
2019-02-15T10:46:20.818Z,5.97
2019-02-15T10:48:49.414Z,5.63
2019-02-15T10:51:18.222Z,5.20
2019-02-15T10:53:47.029Z,6.00
2019-02-15T10:56:15.858Z,5.53
2019-02-15T10:58:44.525Z,5.57
2019-02-15T11:01:13.212Z,5.70
2019-02-15T11:03:41.870Z,4.17
2019-02-15T11:06:10.422Z,3.87
2019-02-15T11:08:39.109Z,2.10
2019-02-15T11:11:07.874Z,1.70
2019-02-15T11:13:36.630Z,2.97
2019-02-15T11:16:06.882Z,3.50
2019-02-15T11:18:35.521Z,2.63
2019-02-15T11:21:04.500Z,2.47
2019-02-15T11:23:33.938Z,1.93
2019-02-15T11:26:04.452Z,2.13
2019-02-15T11:28:32.837Z,1.90
2019-02-15T11:31:01.574Z,1.83
2019-02-15T11:33:30.228Z,1.80
2019-02-15T11:35:59.094Z,2.10
2019-02-15T11:38:27.695Z,1.80
2019-02-15T11:40:56.350Z,1.90
2019-02-15T11:43:25.190Z,1.80
2019-02-15T11:45:54.438Z,2.00
2019-02-15T11:48:23.450Z,1.60
2019-02-15T11:50:53.628Z,2.67
2019-02-15T11:53:22.378Z,1.90
2019-02-15T11:55:52.154Z,1.80
2019-02-15T11:58:20.842Z,1.73
2019-02-15T12:00:50.571Z,1.33
2019-02-15T12:03:19.327Z,1.20
2019-02-15T12:05:48.066Z,1.40
2019-02-15T12:08:16.921Z,1.47
2019-02-15T12:10:45.762Z,1.50
2019-02-15T12:13:14.379Z,1.80
2019-02-15T12:15:42.917Z,1.80
2019-02-15T12:18:11.719Z,1.63
2019-02-15T12:20:40.451Z,1.60
2019-02-15T12:23:10.621Z,1.60
2019-02-15T12:25:40.770Z,1.43
2019-02-15T12:28:09.511Z,1.57
2019-02-15T12:30:38.200Z,1.93
2019-02-15T12:33:06.850Z,1.23
2019-02-15T12:35:36.271Z,1.67
2019-02-15T12:38:04.888Z,1.63
2019-02-15T12:40:33.813Z,1.50
2019-02-15T12:43:02.671Z,1.67
2019-02-15T12:45:31.258Z,1.70
2019-02-15T12:47:59.838Z,1.50
2019-02-15T12:50:28.533Z,1.20
2019-02-15T12:52:57.142Z,1.60
2019-02-15T12:55:25.799Z,1.80
2019-02-15T12:57:55.903Z,1.83
2019-02-15T13:00:24.698Z,1.50
2019-02-15T13:02:53.345Z,1.63
2019-02-15T13:05:21.996Z,2.13
2019-02-15T13:07:51.448Z,1.90
2019-02-15T13:10:27.327Z,1.47
2019-02-15T13:12:55.979Z,1.83
2019-02-15T13:15:25.280Z,1.57
2019-02-15T13:17:53.981Z,1.90
2019-02-15T13:20:22.896Z,1.70
2019-02-15T13:22:51.473Z,1.60
2019-02-15T13:25:20.294Z,1.60
2019-02-15T13:27:49.153Z,1.73
2019-02-15T13:30:17.747Z,1.73
2019-02-15T13:32:46.561Z,1.80
2019-02-15T13:35:19.135Z,2.10
2019-02-15T13:37:47.704Z,1.60
2019-02-15T13:40:16.302Z,2.00
2019-02-15T13:42:44.928Z,2.17
2019-02-15T13:45:14.014Z,1.90
2019-02-15T13:47:42.666Z,1.73
2019-02-15T13:50:16.115Z,1.73
2019-02-15T13:52:44.833Z,1.83
2019-02-15T13:55:13.512Z,1.70
2019-02-15T13:57:42.498Z,1.80
2019-02-15T14:00:30.506Z,1.83
2019-02-15T14:02:59.307Z,1.70
2019-02-15T14:05:27.895Z,1.67
2019-02-15T14:07:56.548Z,1.83
2019-02-15T14:10:25.202Z,2.00
2019-02-15T14:12:59.050Z,2.30
2019-02-15T14:15:29.243Z,1.97
2019-02-15T14:17:57.943Z,2.27
2019-02-15T14:20:26.574Z,2.83
2019-02-15T14:22:55.276Z,2.50
2019-02-15T14:25:23.876Z,2.33
2019-02-15T14:27:52.423Z,2.10
2019-02-15T14:30:21.096Z,2.10
2019-02-15T14:32:49.909Z,2.00
2019-02-15T14:35:37.902Z,1.80
2019-02-15T14:38:06.577Z,2.23
2019-02-15T14:40:35.178Z,2.13
2019-02-15T14:43:03.795Z,1.80
2019-02-15T14:45:32.414Z,2.17
2019-02-15T14:48:01.109Z,2.43
2019-02-15T14:50:29.741Z,2.00
2019-02-15T14:52:58.443Z,2.47
2019-02-15T14:55:27.090Z,1.70
2019-02-15T14:57:55.753Z,2.40
2019-02-15T15:00:24.748Z,1.80
2019-02-15T15:02:53.355Z,2.20
2019-02-15T15:05:29.882Z,2.37
2019-02-15T15:07:58.591Z,2.50
2019-02-15T15:10:27.247Z,2.23
2019-02-15T15:12:56.165Z,2.07
2019-02-15T15:15:24.750Z,2.30
2019-02-15T15:18:00.885Z,2.20
2019-02-15T15:20:25.146Z,2.10
2019-02-15T15:22:53.854Z,2.00
2019-02-15T15:25:22.774Z,2.17
2019-02-15T15:27:51.682Z,1.67
2019-02-15T15:30:20.330Z,2.20
2019-02-15T15:32:54.185Z,2.00
2019-02-15T15:35:22.794Z,2.20
2019-02-15T15:37:51.399Z,1.60
2019-02-15T15:40:20.018Z,2.30
2019-02-15T15:42:48.581Z,2.13
2019-02-15T15:45:17.243Z,1.90
2019-02-15T15:47:45.946Z,2.20
2019-02-15T15:50:15.057Z,2.17
2019-02-15T15:52:48.984Z,2.70
2019-02-15T15:55:17.995Z,2.60
2019-02-15T15:57:46.887Z,2.60
2019-02-15T16:00:17.587Z,2.40
2019-02-15T16:02:46.209Z,2.40
2019-02-15T16:05:14.938Z,2.50
2019-02-15T16:07:43.974Z,2.30
2019-02-15T16:10:16.290Z,2.20
2019-02-15T16:12:47.101Z,2.40
2019-02-15T16:15:15.516Z,2.60
2019-02-15T16:17:44.131Z,2.83
2019-02-15T16:20:13.759Z,2.43
2019-02-15T16:22:42.491Z,2.33
2019-02-15T16:25:11.745Z,2.30
2019-02-15T16:27:40.329Z,3.10
2019-02-15T16:30:15.735Z,3.10
2019-02-15T16:32:44.626Z,2.57
2019-02-15T16:35:13.394Z,3.17
2019-02-15T16:37:41.984Z,3.30
2019-02-15T16:40:15.723Z,4.40
2019-02-15T16:42:44.786Z,4.87
2019-02-15T16:45:14.978Z,4.00
2019-02-15T16:47:43.597Z,4.37
2019-02-15T16:50:12.923Z,4.80
2019-02-15T16:52:41.639Z,5.00
2019-02-15T16:55:13.245Z,7.73
2019-02-15T16:57:41.000Z,6.80
2019-02-15T17:00:13.781Z,7.83
2019-02-15T17:02:42.497Z,7.23
2019-02-15T17:05:11.403Z,11.63
2019-02-15T17:07:40.083Z,10.03
2019-02-15T17:10:10.442Z,8.77
2019-02-15T17:12:39.082Z,8.10
2019-02-15T17:15:10.942Z,7.90
2019-02-15T17:17:39.703Z,10.03
2019-02-15T17:20:10.092Z,8.80
2019-02-15T17:22:38.762Z,8.53
2019-02-15T17:25:13.196Z,8.07
2019-02-15T17:27:43.813Z,7.17
2019-02-15T17:30:12.840Z,7.33
2019-02-15T17:32:41.393Z,6.60
2019-02-15T17:35:11.134Z,8.60
2019-02-15T17:37:39.787Z,8.47
2019-02-15T17:40:11.026Z,9.87
2019-02-15T17:42:39.573Z,9.63
2019-02-15T17:45:10.582Z,9.23
2019-02-15T17:47:39.277Z,8.30
2019-02-15T17:50:10.254Z,8.80
2019-02-15T17:52:38.910Z,7.00
2019-02-15T17:55:09.890Z,6.80
2019-02-15T17:57:39.109Z,7.10
2019-02-15T18:00:13.122Z,7.53
2019-02-15T18:02:41.968Z,6.63
2019-02-15T18:05:17.429Z,7.37
2019-02-15T18:07:49.113Z,11.47
2019-02-15T18:10:17.798Z,9.43
2019-02-15T18:12:46.529Z,6.93
2019-02-15T18:15:15.222Z,6.47
2019-02-15T18:17:43.864Z,7.03
2019-02-15T18:20:12.691Z,7.07
2019-02-15T18:22:41.235Z,8.83
2019-02-15T18:25:11.410Z,7.90
2019-02-15T18:27:40.023Z,7.13
2019-02-15T18:30:11.650Z,7.07
2019-02-15T18:32:40.446Z,6.63
2019-02-15T18:35:09.211Z,6.33
2019-02-15T18:37:38.174Z,5.70
2019-02-15T18:40:09.781Z,5.80
2019-02-15T18:42:38.504Z,6.93
2019-02-15T18:45:10.226Z,6.40
2019-02-15T18:47:38.814Z,8.17
2019-02-15T18:50:09.473Z,8.40
2019-02-15T18:52:38.025Z,9.30
2019-02-15T18:55:09.414Z,8.20
2019-02-15T18:57:38.351Z,7.97
2019-02-15T19:00:19.285Z,7.03
2019-02-15T19:02:50.227Z,7.43
2019-02-15T19:05:18.871Z,7.57
2019-02-15T19:07:47.671Z,7.67
2019-02-15T19:10:21.462Z,6.37
2019-02-15T19:12:50.161Z,7.60
2019-02-15T19:15:19.085Z,6.90
2019-02-15T19:17:47.739Z,8.17
2019-02-15T19:20:17.420Z,8.63
2019-02-15T19:22:46.034Z,6.80
2019-02-15T19:25:17.320Z,6.77
2019-02-15T19:28:05.255Z,6.93
2019-02-15T19:30:36.463Z,7.40
2019-02-15T19:33:05.146Z,7.10
2019-02-15T19:35:33.866Z,7.83
2019-02-15T19:38:02.422Z,7.53
2019-02-15T19:40:31.097Z,8.27
2019-02-15T19:43:02.855Z,7.77
2019-02-15T19:45:31.452Z,8.50
2019-02-15T19:48:00.032Z,10.60
2019-02-15T19:50:28.613Z,7.93
2019-02-15T19:52:59.165Z,8.13
2019-02-15T19:55:27.879Z,7.43
2019-02-15T19:57:56.605Z,7.97
2019-02-15T20:00:25.407Z,8.53
2019-02-15T20:02:53.991Z,7.77
2019-02-15T20:05:22.565Z,8.40
2019-02-15T20:07:51.207Z,7.93
2019-02-15T20:10:24.007Z,8.57
2019-02-15T20:12:52.590Z,8.57
2019-02-15T20:15:22.902Z,9.17
2019-02-15T20:17:51.480Z,8.77
2019-02-15T20:20:20.137Z,9.37
2019-02-15T20:22:48.758Z,8.27
2019-02-15T20:25:17.579Z,8.10
2019-02-15T20:27:46.743Z,8.53
2019-02-15T20:30:24.646Z,9.87
2019-02-15T20:32:53.194Z,8.50
2019-02-15T20:35:21.814Z,8.40
2019-02-15T20:37:50.508Z,8.53
2019-02-15T20:40:19.187Z,7.80
2019-02-15T20:42:49.244Z,7.87
2019-02-15T20:45:24.800Z,7.80
2019-02-15T20:47:56.386Z,8.27
2019-02-15T20:50:24.991Z,8.60
2019-02-15T20:52:53.565Z,8.97
2019-02-15T20:55:22.381Z,8.20
2019-02-15T20:58:10.768Z,8.63
2019-02-15T21:00:39.510Z,8.20
2019-02-15T21:03:08.135Z,8.00
2019-02-15T21:05:36.831Z,8.57
2019-02-15T21:08:05.570Z,8.13
2019-02-15T21:10:34.325Z,8.97
2019-02-15T21:13:02.977Z,8.80
2019-02-15T21:15:31.635Z,8.07
2019-02-15T21:18:02.032Z,8.50
2019-02-15T21:20:30.639Z,8.40
2019-02-15T21:22:59.216Z,9.20
2019-02-15T21:25:27.881Z,11.30
2019-02-15T21:27:56.911Z,10.90
2019-02-15T21:30:25.699Z,10.23
2019-02-15T21:32:54.290Z,9.57
2019-02-15T21:35:23.113Z,10.70
2019-02-15T21:37:53.526Z,8.67
2019-02-15T21:40:22.151Z,8.37
2019-02-15T21:42:52.195Z,9.23
2019-02-15T21:45:21.215Z,8.47
2019-02-15T21:47:50.041Z,9.00
2019-02-15T21:50:18.915Z,8.40
2019-02-15T21:52:47.569Z,9.17
2019-02-15T21:55:16.849Z,8.50
2019-02-15T21:57:45.417Z,8.43
2019-02-15T22:00:24.298Z,9.03
2019-02-15T22:02:53.031Z,9.20
2019-02-15T22:05:21.583Z,9.60
2019-02-15T22:07:50.187Z,10.37
2019-02-15T22:10:18.845Z,9.40
2019-02-15T22:12:47.527Z,11.37
2019-02-15T22:15:17.582Z,10.87
2019-02-15T22:17:46.262Z,11.00
2019-02-15T22:20:25.928Z,10.87
2019-02-15T22:23:06.890Z,10.87
2019-02-15T22:25:35.639Z,10.13
2019-02-15T22:28:05.573Z,10.23
2019-02-15T22:30:36.098Z,10.90
2019-02-15T22:33:05.269Z,9.90
2019-02-15T22:35:34.155Z,10.87
2019-02-15T22:38:02.810Z,11.93
2019-02-15T22:40:35.527Z,11.00
2019-02-15T22:43:19.179Z,10.17
2019-02-15T22:45:47.898Z,10.20
2019-02-15T22:48:17.371Z,10.30
2019-02-15T22:50:45.986Z,11.20
2019-02-15T22:53:14.563Z,10.27
2019-02-15T22:55:43.176Z,10.67
2019-02-15T22:58:11.811Z,12.13
2019-02-15T23:00:46.523Z,12.20
2019-02-15T23:03:16.130Z,11.50
2019-02-15T23:05:44.699Z,11.27
2019-02-15T23:08:13.403Z,12.03
2019-02-15T23:10:42.082Z,12.00
2019-02-15T23:13:10.668Z,12.57
2019-02-15T23:15:39.273Z,12.27
2019-02-15T23:18:07.860Z,12.13
2019-02-15T23:20:44.649Z,11.17
2019-02-15T23:23:06.735Z,11.47
2019-02-15T23:25:35.352Z,11.27
2019-02-15T23:28:03.934Z,11.30
2019-02-15T23:30:32.515Z,12.23
2019-02-15T23:33:01.067Z,11.63
2019-02-15T23:35:29.856Z,10.60
2019-02-15T23:37:58.427Z,11.30
2019-02-15T23:40:26.979Z,11.80
2019-02-15T23:42:55.573Z,10.93
2019-02-15T23:45:24.174Z,10.73
2019-02-15T23:47:52.763Z,11.47
2019-02-15T23:50:21.418Z,11.27
2019-02-15T23:52:50.101Z,11.03
2019-02-15T23:55:18.646Z,10.70
2019-02-15T23:57:47.171Z,10.33
